createdAt,value
2018-05-10T00:00:02.023Z,55.90
2018-05-10T00:02:31.031Z,56.20
2018-05-10T00:05:00.079Z,56.60
2018-05-10T00:07:29.430Z,56.70
2018-05-10T00:09:59.197Z,56.90
2018-05-10T00:12:28.651Z,56.50
2018-05-10T00:14:57.772Z,56.60
2018-05-10T00:17:27.143Z,56.80
2018-05-10T00:19:56.400Z,57.00
2018-05-10T00:22:26.346Z,57.20
2018-05-10T00:24:56.155Z,57.30
2018-05-10T00:27:25.435Z,57.20
2018-05-10T00:29:54.609Z,57.20
2018-05-10T00:32:23.641Z,57.10
2018-05-10T00:34:52.825Z,57.10
2018-05-10T00:37:21.931Z,57.20
2018-05-10T00:39:50.971Z,57.00
2018-05-10T00:42:19.987Z,56.90
2018-05-10T00:44:49.976Z,57.30
2018-05-10T00:47:18.983Z,57.50
2018-05-10T00:49:48.003Z,57.70
2018-05-10T00:54:54.016Z,57.70
2018-05-10T00:57:23.025Z,58.20
2018-05-10T00:59:52.068Z,58.40
2018-05-10T01:02:21.859Z,58.30
2018-05-10T01:04:50.924Z,58.30
2018-05-10T01:07:19.947Z,58.70
2018-05-10T01:09:49.031Z,58.50
2018-05-10T01:12:18.076Z,58.60
2018-05-10T01:14:47.100Z,58.60
2018-05-10T01:17:16.163Z,58.60
2018-05-10T01:19:45.187Z,58.40
2018-05-10T01:22:14.200Z,58.20
2018-05-10T01:24:43.282Z,58.30
2018-05-10T01:27:12.370Z,58.40
2018-05-10T01:29:41.359Z,58.60
2018-05-10T01:32:10.402Z,58.90
2018-05-10T01:34:40.219Z,58.80
2018-05-10T01:37:09.239Z,58.70
2018-05-10T01:39:38.349Z,58.80
2018-05-10T01:42:07.353Z,59.00
2018-05-10T01:44:36.414Z,59.10
2018-05-10T01:47:05.427Z,59.00
2018-05-10T01:49:34.448Z,59.20
2018-05-10T01:52:03.510Z,59.50
2018-05-10T01:54:32.549Z,59.50
2018-05-10T01:57:01.565Z,59.70
2018-05-10T01:59:31.383Z,60.00
2018-05-10T02:02:00.394Z,59.90
2018-05-10T02:04:29.436Z,60.30
2018-05-10T02:06:58.451Z,60.40
2018-05-10T02:09:27.516Z,60.60
2018-05-10T02:11:56.531Z,60.70
2018-05-10T02:14:26.337Z,60.70
2018-05-10T02:16:55.375Z,60.70
2018-05-10T02:19:24.445Z,60.40
2018-05-10T02:21:53.479Z,60.20
2018-05-10T02:24:22.540Z,60.20
2018-05-10T02:26:51.596Z,60.20
2018-05-10T02:29:20.616Z,60.30
2018-05-10T02:31:49.668Z,60.10
2018-05-10T02:34:18.700Z,60.40
2018-05-10T02:36:47.759Z,60.90
2018-05-10T02:39:16.816Z,60.70
2018-05-10T02:41:45.871Z,61.20
2018-05-10T02:44:15.652Z,60.90
2018-05-10T02:46:44.671Z,60.90
2018-05-10T02:49:14.488Z,60.70
2018-05-10T02:51:43.512Z,61.00
2018-05-10T02:54:12.528Z,61.00
2018-05-10T02:56:41.579Z,60.70
2018-05-10T02:59:10.622Z,60.50
2018-05-10T03:01:39.679Z,60.90
2018-05-10T03:04:08.704Z,60.60
2018-05-10T03:06:37.753Z,60.40
2018-05-10T03:09:06.773Z,60.40
2018-05-10T03:11:35.832Z,60.70
2018-05-10T03:14:05.620Z,61.10
2018-05-10T03:16:34.672Z,61.10
2018-05-10T03:19:03.678Z,61.20
2018-05-10T03:21:32.786Z,61.10
2018-05-10T03:24:01.800Z,61.50
2018-05-10T03:26:30.855Z,61.50
2018-05-10T03:28:59.883Z,61.60
2018-05-10T03:31:28.937Z,61.60
2018-05-10T03:33:57.983Z,61.60
2018-05-10T03:36:27.024Z,61.90
2018-05-10T03:38:56.072Z,61.70
2018-05-10T03:41:25.846Z,61.80
2018-05-10T03:43:54.909Z,61.80
2018-05-10T03:46:23.928Z,61.70
2018-05-10T03:48:52.927Z,61.60
2018-05-10T03:51:21.967Z,61.50
2018-05-10T03:53:51.007Z,61.70
2018-05-10T03:56:20.025Z,62.10
2018-05-10T03:58:49.069Z,62.20
2018-05-10T04:01:18.083Z,62.60
2018-05-10T04:04:04.980Z,62.70
2018-05-10T04:06:51.791Z,62.90
2018-05-10T04:09:38.528Z,63.00
2018-05-10T04:12:07.541Z,62.90
2018-05-10T04:14:37.357Z,63.00
2018-05-10T04:17:06.406Z,63.00
2018-05-10T04:19:35.434Z,63.20
2018-05-10T04:22:05.222Z,63.00
2018-05-10T04:24:34.278Z,63.00
2018-05-10T04:27:03.308Z,62.50
2018-05-10T04:29:32.340Z,62.60
2018-05-10T04:32:01.383Z,62.60
2018-05-10T04:34:30.419Z,62.40
2018-05-10T04:36:59.448Z,62.40
2018-05-10T04:39:28.496Z,61.80
2018-05-10T04:41:58.612Z,61.90
2018-05-10T04:44:27.670Z,62.10
2018-05-10T04:46:56.691Z,62.10
2018-05-10T04:49:25.721Z,62.40
2018-05-10T04:51:54.768Z,62.50
2018-05-10T04:54:23.815Z,62.50
2018-05-10T04:56:52.831Z,62.30
2018-05-10T04:59:21.875Z,62.00
2018-05-10T05:01:50.928Z,62.00
2018-05-10T05:04:19.969Z,61.60
2018-05-10T05:06:49.747Z,61.90
2018-05-10T05:09:18.801Z,61.10
2018-05-10T05:11:47.872Z,61.30
2018-05-10T05:14:17.655Z,61.10
2018-05-10T05:16:46.701Z,61.00
2018-05-10T05:19:15.725Z,61.10
2018-05-10T05:21:44.796Z,61.10
2018-05-10T05:24:13.819Z,61.20
2018-05-10T05:26:42.907Z,61.20
2018-05-10T05:29:11.961Z,61.00
2018-05-10T05:31:41.066Z,62.00
2018-05-10T05:34:10.129Z,61.30
2018-05-10T05:36:39.187Z,61.50
2018-05-10T05:39:08.264Z,61.80
2018-05-10T05:41:37.280Z,61.60
2018-05-10T05:44:06.380Z,61.30
2018-05-10T05:46:37.332Z,61.00
2018-05-10T05:49:07.164Z,60.00
2018-05-10T05:51:36.939Z,60.10
2018-05-10T05:54:06.028Z,60.00
2018-05-10T05:56:35.124Z,59.90
2018-05-10T05:59:04.248Z,59.50
2018-05-10T06:01:33.284Z,59.00
2018-05-10T06:04:02.354Z,58.80
2018-05-10T06:06:31.382Z,58.50
2018-05-10T06:09:00.442Z,58.00
2018-05-10T06:11:29.468Z,57.90
2018-05-10T06:13:58.579Z,57.80
2018-05-10T06:16:27.650Z,58.20
2018-05-10T06:18:57.688Z,57.70
2018-05-10T06:21:26.753Z,57.60
2018-05-10T06:23:55.810Z,57.00
2018-05-10T06:26:24.834Z,57.00
2018-05-10T06:28:53.905Z,56.10
2018-05-10T06:31:23.700Z,55.80
2018-05-10T06:33:52.764Z,55.80
2018-05-10T06:36:21.861Z,55.30
2018-05-10T06:38:50.904Z,55.50
2018-05-10T06:41:19.978Z,54.50
2018-05-10T06:43:49.083Z,53.50
2018-05-10T06:46:18.911Z,54.00
2018-05-10T06:48:48.002Z,54.00
2018-05-10T06:51:17.037Z,53.90
2018-05-10T06:53:46.163Z,52.40
2018-05-10T06:56:15.216Z,51.70
2018-05-10T06:58:44.248Z,51.40
2018-05-10T07:03:48.744Z,50.10
2018-05-10T07:06:18.852Z,50.00
2018-05-10T07:08:47.868Z,46.10
2018-05-10T07:11:16.900Z,45.30
2018-05-10T07:13:45.914Z,45.40
2018-05-10T07:16:15.752Z,43.90
2018-05-10T07:18:44.760Z,43.90
2018-05-10T07:21:13.795Z,42.60
2018-05-10T07:23:42.834Z,43.00
2018-05-10T07:26:11.851Z,42.10
2018-05-10T07:28:40.943Z,42.50
2018-05-10T07:31:13.329Z,43.30
2018-05-10T07:33:42.426Z,43.70
2018-05-10T07:36:11.613Z,42.60
2018-05-10T07:38:40.847Z,43.40
2018-05-10T07:41:15.193Z,42.30
2018-05-10T07:43:57.013Z,41.30
2018-05-10T07:46:32.219Z,39.90
2018-05-10T07:49:02.595Z,40.00
2018-05-10T07:51:32.508Z,39.80
2018-05-10T07:54:01.668Z,39.60
2018-05-10T07:56:31.162Z,39.80
2018-05-10T07:59:02.442Z,40.30
2018-05-10T08:01:31.572Z,40.70
2018-05-10T08:04:00.689Z,40.40
2018-05-10T08:06:29.736Z,39.90
2018-05-10T08:08:59.450Z,39.70
2018-05-10T08:11:28.594Z,39.60
2018-05-10T08:13:59.547Z,38.00
2018-05-10T08:16:28.567Z,38.00
2018-05-10T08:18:57.671Z,38.00
2018-05-10T08:21:31.667Z,38.50
2018-05-10T08:24:01.807Z,37.50
2018-05-10T08:26:31.156Z,37.80
2018-05-10T08:29:00.472Z,37.00
2018-05-10T08:31:29.774Z,36.60
2018-05-10T08:33:58.967Z,36.70
2018-05-10T08:36:28.858Z,37.70
2018-05-10T08:38:58.609Z,35.40
2018-05-10T08:41:27.619Z,35.30
2018-05-10T08:43:56.685Z,35.20
2018-05-10T08:46:25.699Z,35.50
2018-05-10T08:48:54.718Z,36.30
2018-05-10T08:51:23.792Z,36.00
2018-05-10T08:53:52.833Z,34.90
2018-05-10T08:56:21.899Z,35.20
2018-05-10T08:58:50.976Z,36.10
2018-05-10T09:01:20.048Z,36.40
2018-05-10T09:03:49.271Z,35.40
2018-05-10T09:06:18.328Z,35.90
2018-05-10T09:08:48.121Z,36.90
2018-05-10T09:11:17.240Z,36.90
2018-05-10T09:13:47.134Z,38.30
2018-05-10T09:16:16.178Z,38.30
2018-05-10T09:18:45.240Z,38.20
2018-05-10T09:21:15.035Z,38.60
2018-05-10T09:23:44.066Z,38.40
2018-05-10T09:26:13.131Z,38.60
2018-05-10T09:28:42.903Z,39.90
2018-05-10T09:31:13.104Z,39.80
2018-05-10T09:33:42.126Z,40.60
2018-05-10T09:36:11.175Z,40.60
2018-05-10T09:38:40.198Z,41.30
2018-05-10T09:41:09.239Z,39.80
2018-05-10T09:43:39.040Z,40.80
2018-05-10T09:46:08.111Z,40.70
2018-05-10T09:48:37.112Z,40.60
2018-05-10T09:51:06.155Z,41.10
2018-05-10T09:53:35.318Z,41.50
2018-05-10T09:56:04.384Z,42.10
2018-05-10T09:58:33.388Z,40.70
2018-05-10T10:01:02.440Z,39.70
2018-05-10T10:03:31.683Z,40.30
2018-05-10T10:06:00.718Z,39.90
2018-05-10T10:08:30.253Z,41.40
2018-05-10T10:10:59.392Z,42.20
2018-05-10T10:13:28.431Z,43.60
2018-05-10T10:15:59.372Z,45.00
2018-05-10T10:18:29.024Z,44.70
2018-05-10T10:20:58.650Z,43.50
2018-05-10T10:23:27.648Z,43.80
2018-05-10T10:25:57.465Z,44.20
2018-05-10T10:28:26.843Z,44.20
2018-05-10T10:30:55.983Z,45.20
2018-05-10T10:33:25.107Z,46.60
2018-05-10T10:35:54.263Z,46.20
2018-05-10T10:38:23.954Z,46.90
2018-05-10T10:40:53.419Z,47.00
2018-05-10T10:43:23.855Z,47.20
2018-05-10T10:45:53.589Z,47.10
2018-05-10T10:48:23.201Z,47.00
2018-05-10T10:50:52.994Z,47.80
2018-05-10T10:53:22.597Z,48.30
2018-05-10T10:55:52.250Z,49.00
2018-05-10T10:58:21.816Z,49.50
2018-05-10T11:00:52.365Z,51.50
2018-05-10T11:03:22.701Z,52.10
2018-05-10T11:05:53.511Z,52.10
2018-05-10T11:08:22.837Z,51.80
2018-05-10T11:10:52.542Z,51.60
2018-05-10T11:13:23.048Z,50.10
2018-05-10T11:15:52.417Z,50.20
2018-05-10T11:18:22.806Z,50.50
2018-05-10T11:20:51.966Z,49.90
2018-05-10T11:23:21.699Z,49.10
2018-05-10T11:25:50.728Z,49.10
2018-05-10T11:28:19.789Z,49.20
2018-05-10T11:30:48.807Z,48.50
2018-05-10T11:33:18.698Z,48.80
2018-05-10T11:35:48.105Z,48.80
2018-05-10T11:38:17.106Z,49.40
2018-05-10T11:40:46.897Z,47.90
2018-05-10T11:43:15.957Z,47.90
2018-05-10T11:45:44.983Z,48.20
2018-05-10T11:50:58.531Z,48.10
2018-05-10T11:53:27.587Z,46.70
2018-05-10T11:55:56.603Z,45.20
2018-05-10T11:58:25.657Z,43.90
2018-05-10T12:00:54.667Z,42.60
2018-05-10T12:03:23.716Z,41.00
2018-05-10T12:05:53.004Z,38.90
2018-05-10T12:08:22.042Z,38.70
2018-05-10T12:10:51.060Z,38.10
2018-05-10T12:13:20.109Z,38.20
2018-05-10T12:15:49.106Z,37.90
2018-05-10T12:18:18.912Z,37.50
2018-05-10T12:20:47.920Z,37.50
2018-05-10T12:23:17.733Z,37.70
2018-05-10T12:25:46.763Z,37.60
2018-05-10T12:28:15.793Z,37.50
2018-05-10T12:30:44.808Z,37.00
2018-05-10T12:33:13.899Z,38.30
2018-05-10T12:35:43.675Z,37.30
2018-05-10T12:38:12.702Z,37.30
2018-05-10T12:40:50.127Z,37.20
2018-05-10T12:43:20.082Z,35.80
2018-05-10T12:45:49.216Z,35.80
2018-05-10T12:48:18.234Z,36.30
2018-05-10T12:50:47.259Z,34.70
2018-05-10T12:53:16.438Z,33.40
2018-05-10T12:55:45.482Z,34.00
2018-05-10T12:58:15.391Z,34.80
2018-05-10T13:00:44.443Z,34.10
2018-05-10T13:03:13.449Z,34.00
2018-05-10T13:05:42.537Z,34.90
2018-05-10T13:08:11.558Z,33.60
2018-05-10T13:10:40.576Z,31.30
2018-05-10T13:13:10.396Z,30.60
2018-05-10T13:15:40.159Z,30.10
2018-05-10T13:18:09.171Z,30.00
2018-05-10T13:20:38.248Z,30.00
2018-05-10T13:23:07.262Z,29.50
2018-05-10T13:25:36.380Z,30.60
2018-05-10T13:28:05.416Z,32.40
2018-05-10T13:30:36.412Z,33.40
2018-05-10T13:33:06.255Z,33.90
2018-05-10T13:35:35.300Z,33.90
2018-05-10T13:38:04.324Z,35.00
2018-05-10T13:40:33.356Z,35.10
2018-05-10T13:43:02.368Z,35.00
2018-05-10T13:45:31.425Z,34.60
2018-05-10T13:48:00.442Z,32.90
2018-05-10T13:50:29.458Z,33.30
2018-05-10T13:52:58.640Z,33.80
2018-05-10T13:55:27.565Z,33.70
2018-05-10T13:57:56.604Z,34.00
2018-05-10T14:00:25.613Z,34.10
2018-05-10T14:02:54.641Z,34.30
2018-05-10T14:05:23.655Z,33.40
2018-05-10T14:07:53.480Z,34.10
2018-05-10T14:10:22.495Z,34.00
2018-05-10T14:12:51.490Z,33.80
2018-05-10T14:15:20.558Z,33.10
2018-05-10T14:17:49.985Z,32.90
2018-05-10T14:20:19.007Z,33.60
2018-05-10T14:22:48.107Z,34.60
2018-05-10T14:25:17.169Z,34.50
2018-05-10T14:27:46.315Z,33.60
2018-05-10T14:30:15.413Z,34.00
2018-05-10T14:32:45.706Z,34.20
2018-05-10T14:35:14.747Z,34.00
2018-05-10T14:37:43.933Z,34.30
2018-05-10T14:40:14.819Z,36.00
2018-05-10T14:42:43.991Z,36.00
2018-05-10T14:45:13.126Z,38.30
2018-05-10T14:47:42.172Z,38.60
2018-05-10T14:50:11.259Z,39.70
2018-05-10T14:52:41.060Z,42.70
2018-05-10T14:55:10.866Z,43.40
2018-05-10T14:57:39.916Z,43.30
2018-05-10T15:00:08.931Z,44.60
2018-05-10T15:02:41.531Z,44.60
2018-05-10T15:05:11.333Z,45.20
2018-05-10T15:07:40.534Z,45.60
2018-05-10T15:10:12.484Z,45.90
2018-05-10T15:12:41.520Z,46.50
2018-05-10T15:15:10.647Z,49.20
2018-05-10T15:17:41.629Z,52.20
2018-05-10T15:20:10.791Z,54.00
2018-05-10T15:22:40.453Z,55.90
2018-05-10T15:25:10.278Z,59.80
2018-05-10T15:27:40.321Z,61.00
2018-05-10T15:30:09.395Z,61.00
2018-05-10T15:32:38.416Z,61.60
2018-05-10T15:35:07.470Z,63.40
2018-05-10T15:37:37.268Z,65.90
2018-05-10T15:40:07.110Z,66.50
2018-05-10T15:42:36.131Z,66.50
2018-05-10T15:45:05.207Z,66.20
2018-05-10T15:47:34.234Z,66.40
2018-05-10T15:50:03.242Z,66.30
2018-05-10T15:52:32.312Z,68.30
2018-05-10T15:55:01.337Z,67.10
2018-05-10T15:57:30.387Z,65.00
2018-05-10T15:59:59.467Z,66.40
2018-05-10T16:02:28.561Z,68.00
2018-05-10T16:04:57.585Z,67.00
2018-05-10T16:07:26.637Z,67.80
2018-05-10T16:09:56.494Z,67.40
2018-05-10T16:12:25.946Z,66.50
2018-05-10T16:14:55.164Z,66.00
2018-05-10T16:17:24.304Z,66.10
2018-05-10T16:19:53.770Z,65.80
2018-05-10T16:22:24.312Z,66.30
2018-05-10T16:24:54.372Z,67.80
2018-05-10T16:27:23.652Z,67.80
2018-05-10T16:29:52.799Z,67.70
2018-05-10T16:32:23.303Z,67.70
2018-05-10T16:34:52.442Z,67.60
2018-05-10T16:37:21.511Z,67.60
2018-05-10T16:39:50.532Z,68.10
2018-05-10T16:42:19.564Z,68.10
2018-05-10T16:44:48.574Z,68.00
2018-05-10T16:47:18.430Z,67.90
2018-05-10T16:49:47.450Z,67.90
2018-05-10T16:52:16.459Z,67.40
2018-05-10T16:54:45.500Z,67.40
2018-05-10T16:57:14.516Z,67.00
2018-05-10T16:59:43.591Z,68.00
2018-05-10T17:02:12.768Z,68.50
2018-05-10T17:04:42.652Z,67.00
2018-05-10T17:07:12.435Z,67.40
2018-05-10T17:09:41.504Z,67.30
2018-05-10T17:12:10.623Z,67.00
2018-05-10T17:14:40.214Z,67.50
2018-05-10T17:17:09.489Z,67.40
2018-05-10T17:19:39.397Z,67.00
2018-05-10T17:22:08.508Z,66.90
2018-05-10T17:24:38.105Z,67.90
2018-05-10T17:27:07.645Z,66.90
2018-05-10T17:29:37.486Z,67.80
2018-05-10T17:32:06.543Z,67.90
2018-05-10T17:34:35.587Z,69.30
2018-05-10T17:37:05.366Z,70.60
2018-05-10T17:39:34.404Z,70.50
2018-05-10T17:42:03.467Z,70.00
2018-05-10T17:44:32.503Z,70.90
2018-05-10T17:47:01.529Z,71.60
2018-05-10T17:49:30.611Z,72.20
2018-05-10T17:51:59.628Z,71.30
2018-05-10T17:54:28.657Z,72.10
2018-05-10T17:56:57.706Z,71.40
2018-05-10T17:59:26.769Z,70.70
2018-05-10T18:01:55.788Z,71.20
2018-05-10T18:04:24.843Z,71.80
2018-05-10T18:06:53.876Z,71.30
2018-05-10T18:09:22.950Z,72.70
2018-05-10T18:11:51.987Z,72.80
2018-05-10T18:14:20.995Z,73.60
2018-05-10T18:16:50.134Z,71.90
2018-05-10T18:19:19.084Z,73.40
2018-05-10T18:21:48.577Z,74.20
2018-05-10T18:24:17.596Z,74.30
2018-05-10T18:26:46.599Z,75.20
2018-05-10T18:29:15.658Z,74.30
2018-05-10T18:31:44.744Z,74.80
2018-05-10T18:34:13.767Z,74.30
2018-05-10T18:36:43.569Z,73.80
2018-05-10T18:39:13.780Z,74.00
2018-05-10T18:41:43.399Z,74.00
2018-05-10T18:44:12.432Z,73.20
2018-05-10T18:46:41.519Z,73.60
2018-05-10T18:49:10.535Z,74.10
2018-05-10T18:51:40.376Z,74.80
2018-05-10T18:54:09.431Z,74.10
2018-05-10T18:56:38.612Z,74.20
2018-05-10T18:59:07.641Z,74.60
2018-05-10T19:01:36.692Z,74.50
2018-05-10T19:04:05.935Z,74.70
2018-05-10T19:06:35.016Z,74.30
2018-05-10T19:09:04.047Z,74.40
2018-05-10T19:11:34.566Z,74.10
2018-05-10T19:14:06.824Z,74.00
2018-05-10T19:16:36.793Z,74.70
2018-05-10T19:19:05.807Z,74.70
2018-05-10T19:21:34.857Z,75.00
2018-05-10T19:24:03.966Z,75.20
2018-05-10T19:26:33.159Z,75.20
2018-05-10T19:29:02.156Z,75.10
2018-05-10T19:31:31.198Z,74.20
2018-05-10T19:34:00.229Z,74.30
2018-05-10T19:36:29.315Z,75.10
2018-05-10T19:38:59.129Z,75.40
2018-05-10T19:41:28.227Z,75.50
2018-05-10T19:43:58.011Z,74.60
2018-05-10T19:46:27.080Z,74.60
2018-05-10T19:48:56.739Z,74.50
2018-05-10T19:51:25.827Z,73.60
2018-05-10T19:53:54.837Z,72.80
2018-05-10T19:56:24.026Z,73.50
2018-05-10T19:58:53.258Z,73.90
2018-05-10T20:01:22.284Z,73.10
2018-05-10T20:03:51.377Z,72.50
2018-05-10T20:06:20.475Z,71.90
2018-05-10T20:08:49.555Z,72.30
2018-05-10T20:11:18.699Z,72.70
2018-05-10T20:13:47.853Z,72.30
2018-05-10T20:16:16.821Z,71.80
2018-05-10T20:18:45.879Z,72.00
2018-05-10T20:21:14.979Z,72.20
2018-05-10T20:23:44.554Z,72.00
2018-05-10T20:26:14.669Z,71.20
2018-05-10T20:28:44.575Z,71.30
2018-05-10T20:31:14.667Z,71.70
2018-05-10T20:33:44.213Z,71.60
2018-05-10T20:36:14.407Z,71.80
2018-05-10T20:38:43.545Z,71.60
2018-05-10T20:41:13.721Z,72.10
2018-05-10T20:43:43.285Z,72.00
2018-05-10T20:46:12.470Z,72.00
2018-05-10T20:48:42.039Z,72.70
2018-05-10T20:51:11.225Z,73.20
2018-05-10T20:53:40.277Z,73.10
2018-05-10T20:56:09.975Z,73.00
2018-05-10T20:58:39.116Z,72.60
2018-05-10T21:01:08.647Z,72.80
2018-05-10T21:03:38.254Z,72.40
2018-05-10T21:06:08.299Z,72.00
2018-05-10T21:08:37.930Z,71.90
2018-05-10T21:11:07.061Z,71.50
2018-05-10T21:13:36.908Z,71.20
2018-05-10T21:16:07.151Z,71.00
2018-05-10T21:18:36.735Z,70.90
2018-05-10T21:21:06.907Z,70.80
2018-05-10T21:23:37.094Z,71.60
2018-05-10T21:26:06.998Z,71.60
2018-05-10T21:28:37.605Z,71.40
2018-05-10T21:31:07.334Z,71.20
2018-05-10T21:33:36.573Z,70.60
2018-05-10T21:36:05.882Z,70.40
2018-05-10T21:38:35.672Z,70.40
2018-05-10T21:41:05.520Z,70.30
2018-05-10T21:43:35.133Z,70.30
2018-05-10T21:46:04.295Z,69.80
2018-05-10T21:48:33.572Z,70.10
2018-05-10T21:51:04.737Z,70.40
2018-05-10T21:53:34.143Z,70.20
2018-05-10T21:56:04.398Z,70.00
2018-05-10T21:58:33.585Z,69.70
2018-05-10T22:05:50.672Z,70.70
2018-05-10T22:08:20.983Z,71.20
2018-05-10T22:10:52.512Z,71.00
2018-05-10T22:13:21.761Z,70.30
2018-05-10T22:15:51.369Z,70.00
2018-05-10T22:18:20.628Z,69.40
2018-05-10T22:20:52.751Z,70.00
2018-05-10T22:23:21.788Z,70.10
2018-05-10T22:25:51.112Z,69.20
2018-05-10T22:28:21.957Z,68.90
2018-05-10T22:30:52.175Z,69.20
2018-05-10T22:33:21.269Z,69.20
2018-05-10T22:35:50.282Z,69.50
2018-05-10T22:38:19.319Z,69.20
2018-05-10T22:40:48.567Z,68.70
2018-05-10T22:43:17.603Z,68.50
2018-05-10T22:45:46.615Z,67.90
2018-05-10T22:48:16.570Z,67.60
2018-05-10T22:50:45.708Z,67.40
2018-05-10T22:53:14.930Z,67.80
2018-05-10T22:55:43.971Z,67.60
2018-05-10T22:58:12.999Z,67.90
2018-05-10T23:00:42.046Z,67.70
2018-05-10T23:03:11.053Z,67.50
2018-05-10T23:05:40.403Z,67.80
2018-05-10T23:08:09.426Z,68.80
2018-05-10T23:10:38.450Z,67.60
2018-05-10T23:13:07.472Z,67.40
2018-05-10T23:15:36.519Z,66.70
2018-05-10T23:18:05.535Z,66.90
2018-05-10T23:20:34.575Z,66.60
2018-05-10T23:23:03.597Z,66.20
2018-05-10T23:25:32.635Z,65.90
2018-05-10T23:28:01.650Z,66.40
2018-05-10T23:30:30.691Z,66.40
2018-05-10T23:32:59.711Z,66.40
2018-05-10T23:35:28.762Z,66.40
2018-05-10T23:37:57.981Z,67.10
2018-05-10T23:40:27.320Z,67.20
2018-05-10T23:42:57.093Z,67.20
2018-05-10T23:45:26.094Z,67.20
2018-05-10T23:47:55.124Z,67.00
2018-05-10T23:50:24.136Z,66.80
2018-05-10T23:52:53.171Z,66.60
2018-05-10T23:55:22.219Z,66.80
2018-05-10T23:57:51.225Z,67.20
